Terminal Aerodrome Forecast
Issued by NWS Grand Forks, ND

Home | Current Version | Previous Version | Graphics & Text | Print | Product List | Glossary On
Versions: 1 2 3 4 5 6 7 8 9 10 11 12 13 14
000
FTUS43 KFGF 142300
TAFFAR
TAF
KFAR 142340Z 1500/1524 35016G23KT P6SM BKN040
     FM150100 34014KT P6SM FEW040
     FM150400 VRB05KT P6SM SKC
     FM151600 15007KT P6SM BKN200
     FM151900 13014G20KT P6SM BKN200=

USA.gov is the U.S. government's official web portal to all federal, state and local government web resources and services.